Terminal Aerodrome Forecast
Issued by NWS Duluth, MN

Home | Current Version | Previous Version | Text Only | Print | Product List | Glossary On
Versions: 1 2 3 4 5 6 7 8 9 10 11 12 13 14 15 16 17 18
000
FTUS43 KDLH 272320
TAFINL
TAF
KINL 272320Z 2800/2824 05004KT P6SM FEW070
     FM281100 07002KT 5SM BR BKN060
     FM281400 08004KT P6SM BKN050
     FM281900 08006KT P6SM SCT080=

USA.gov is the U.S. government's official web portal to all federal, state and local government web resources and services.